sensor_id;sensor_type;location;lat;lon;timestamp;pressure;altitude;pressure_sealevel;temperature;humidity
20115;BME280;10218;42.874;25.320;2023-07-20T00:01:53;97051.78;;;24.22;100.00
20115;BME280;10218;42.874;25.320;2023-07-20T00:04:20;97036.94;;;24.13;100.00
20115;BME280;10218;42.874;25.320;2023-07-20T00:06:47;97032.56;;;23.80;100.00
20115;BME280;10218;42.874;25.320;2023-07-20T00:09:14;97025.72;;;24.09;100.00
20115;BME280;10218;42.874;25.320;2023-07-20T00:11:48;97016.81;;;23.87;100.00
20115;BME280;10218;42.874;25.320;2023-07-20T00:14:16;97011.13;;;23.94;100.00
20115;BME280;10218;42.874;25.320;2023-07-20T00:16:50;97004.09;;;24.03;100.00
20115;BME280;10218;42.874;25.320;2023-07-20T00:19:23;96998.81;;;23.86;100.00
20115;BME280;10218;42.874;25.320;2023-07-20T00:21:52;96989.53;;;23.87;100.00
20115;BME280;10218;42.874;25.320;2023-07-20T00:24:19;96971.09;;;24.04;100.00
20115;BME280;10218;42.874;25.320;2023-07-20T00:26:46;96964.62;;;23.47;100.00
20115;BME280;10218;42.874;25.320;2023-07-20T00:29:14;96960.72;;;23.69;100.00
20115;BME280;10218;42.874;25.320;2023-07-20T00:31:41;96950.94;;;23.73;100.00
20115;BME280;10218;42.874;25.320;2023-07-20T00:34:10;96944.37;;;23.42;100.00
20115;BME280;10218;42.874;25.320;2023-07-20T00:36:39;96942.34;;;23.55;100.00
20115;BME280;10218;42.874;25.320;2023-07-20T00:39:06;96930.91;;;23.95;100.00
20115;BME280;10218;42.874;25.320;2023-07-20T00:41:34;96927.13;;;23.96;100.00
20115;BME280;10218;42.874;25.320;2023-07-20T00:44:02;96918.53;;;23.77;100.00
20115;BME280;10218;42.874;25.320;2023-07-20T00:46:29;96908.28;;;23.99;100.00
20115;BME280;10218;42.874;25.320;2023-07-20T00:48:56;96890.25;;;23.93;100.00
20115;BME280;10218;42.874;25.320;2023-07-20T00:51:25;96855.09;;;23.55;100.00
20115;BME280;10218;42.874;25.320;2023-07-20T00:53:53;96836.09;;;23.06;100.00
20115;BME280;10218;42.874;25.320;2023-07-20T00:56:21;96786.66;;;22.66;100.00
20115;BME280;10218;42.874;25.320;2023-07-20T00:58:49;96743.19;;;22.17;100.00
20115;BME280;10218;42.874;25.320;2023-07-20T01:01:16;96647.84;;;21.37;100.00
20115;BME280;10218;42.874;25.320;2023-07-20T01:03:43;96652.44;;;21.14;100.00
20115;BME280;10218;42.874;25.320;2023-07-20T01:06:30;96684.00;;;21.37;100.00
20115;BME280;10218;42.874;25.320;2023-07-20T01:09:18;96730.25;;;21.42;100.00
20115;BME280;10218;42.874;25.320;2023-07-20T01:14:14;96734.06;;;21.63;100.00
20115;BME280;10218;42.874;25.320;2023-07-20T01:16:41;96700.37;;;21.42;100.00
20115;BME280;10218;42.874;25.320;2023-07-20T01:19:08;96690.88;;;21.23;100.00
20115;BME280;10218;42.874;25.320;2023-07-20T01:25:11;96699.19;;;21.00;100.00
20115;BME280;10218;42.874;25.320;2023-07-20T01:28:03;96704.06;;;20.98;100.00
20115;BME280;10218;42.874;25.320;2023-07-20T01:33:38;96670.87;;;21.12;100.00
20115;BME280;10218;42.874;25.320;2023-07-20T01:36:07;96652.53;;;21.03;100.00
20115;BME280;10218;42.874;25.320;2023-07-20T01:38:36;96639.75;;;20.81;100.00
20115;BME280;10218;42.874;25.320;2023-07-20T01:41:03;96629.94;;;20.80;100.00
20115;BME280;10218;42.874;25.320;2023-07-20T01:43:31;96629.22;;;20.68;100.00
20115;BME280;10218;42.874;25.320;2023-07-20T01:45:58;96624.13;;;20.55;100.00
20115;BME280;10218;42.874;25.320;2023-07-20T01:48:26;96607.78;;;20.50;100.00
20115;BME280;10218;42.874;25.320;2023-07-20T01:50:54;96619.41;;;20.67;100.00
20115;BME280;10218;42.874;25.320;2023-07-20T01:53:22;96609.47;;;20.73;100.00
20115;BME280;10218;42.874;25.320;2023-07-20T01:55:49;96586.78;;;20.62;100.00
20115;BME280;10218;42.874;25.320;2023-07-20T01:58:17;96601.81;;;20.70;100.00
20115;BME280;10218;42.874;25.320;2023-07-20T02:00:44;96611.28;;;20.67;100.00
20115;BME280;10218;42.874;25.320;2023-07-20T02:03:11;96601.59;;;20.55;100.00
20115;BME280;10218;42.874;25.320;2023-07-20T02:05:44;96613.25;;;20.72;100.00
20115;BME280;10218;42.874;25.320;2023-07-20T02:08:11;96600.19;;;20.69;100.00
20115;BME280;10218;42.874;25.320;2023-07-20T02:10:38;96600.06;;;20.80;100.00
20115;BME280;10218;42.874;25.320;2023-07-20T02:13:05;96594.66;;;20.80;100.00
20115;BME280;10218;42.874;25.320;2023-07-20T02:15:33;96584.31;;;20.99;100.00
20115;BME280;10218;42.874;25.320;2023-07-20T02:18:00;96572.47;;;20.88;100.00
20115;BME280;10218;42.874;25.320;2023-07-20T02:20:27;96579.22;;;21.03;100.00
20115;BME280;10218;42.874;25.320;2023-07-20T02:22:54;96590.78;;;21.15;100.00
20115;BME280;10218;42.874;25.320;2023-07-20T02:25:22;96602.22;;;21.17;100.00
20115;BME280;10218;42.874;25.320;2023-07-20T02:27:50;96601.72;;;21.03;100.00
20115;BME280;10218;42.874;25.320;2023-07-20T02:30:16;96601.00;;;21.08;100.00
20115;BME280;10218;42.874;25.320;2023-07-20T02:32:44;96593.09;;;21.23;100.00
20115;BME280;10218;42.874;25.320;2023-07-20T02:35:16;96599.81;;;21.42;100.00
20115;BME280;10218;42.874;25.320;2023-07-20T02:37:43;96617.53;;;21.71;100.00
20115;BME280;10218;42.874;25.320;2023-07-20T02:40:11;96634.25;;;21.85;100.00
20115;BME280;10218;42.874;25.320;2023-07-20T02:42:38;96640.03;;;21.89;100.00
20115;BME280;10218;42.874;25.320;2023-07-20T02:45:05;96630.25;;;21.66;100.00
20115;BME280;10218;42.874;25.320;2023-07-20T02:47:33;96630.78;;;21.41;100.00
20115;BME280;10218;42.874;25.320;2023-07-20T02:50:00;96622.00;;;21.34;100.00
20115;BME280;10218;42.874;25.320;2023-07-20T02:52:27;96620.09;;;21.13;100.00
20115;BME280;10218;42.874;25.320;2023-07-20T02:54:56;96631.91;;;21.23;100.00
20115;BME280;10218;42.874;25.320;2023-07-20T02:57:23;96631.13;;;21.23;100.00
20115;BME280;10218;42.874;25.320;2023-07-20T02:59:50;96625.44;;;21.08;100.00
20115;BME280;10218;42.874;25.320;2023-07-20T03:02:17;96620.28;;;20.89;100.00
20115;BME280;10218;42.874;25.320;2023-07-20T03:04:45;96620.38;;;20.78;100.00
20115;BME280;10218;42.874;25.320;2023-07-20T03:07:12;96627.19;;;20.97;100.00
20115;BME280;10218;42.874;25.320;2023-07-20T03:09:39;96629.16;;;21.02;100.00
20115;BME280;10218;42.874;25.320;2023-07-20T03:12:08;96637.69;;;21.10;100.00
20115;BME280;10218;42.874;25.320;2023-07-20T03:14:35;96621.94;;;21.29;100.00
20115;BME280;10218;42.874;25.320;2023-07-20T03:17:02;96633.31;;;21.26;100.00
20115;BME280;10218;42.874;25.320;2023-07-20T03:19:30;96638.22;;;21.29;100.00
20115;BME280;10218;42.874;25.320;2023-07-20T03:21:57;96631.72;;;21.30;100.00
20115;BME280;10218;42.874;25.320;2023-07-20T03:24:24;96628.34;;;21.18;100.00
20115;BME280;10218;42.874;25.320;2023-07-20T03:26:52;96632.13;;;21.17;100.00
20115;BME280;10218;42.874;25.320;2023-07-20T03:29:19;96636.97;;;21.15;100.00
20115;BME280;10218;42.874;25.320;2023-07-20T03:31:46;96654.59;;;21.34;100.00
20115;BME280;10218;42.874;25.320;2023-07-20T03:34:13;96652.69;;;21.13;100.00
20115;BME280;10218;42.874;25.320;2023-07-20T03:36:41;96644.03;;;21.16;100.00
20115;BME280;10218;42.874;25.320;2023-07-20T03:39:10;96652.59;;;21.08;100.00
20115;BME280;10218;42.874;25.320;2023-07-20T03:41:38;96658.75;;;21.20;100.00
20115;BME280;10218;42.874;25.320;2023-07-20T03:44:05;96648.41;;;21.17;100.00
20115;BME280;10218;42.874;25.320;2023-07-20T03:46:32;96649.38;;;21.27;100.00
20115;BME280;10218;42.874;25.320;2023-07-20T03:49:01;96652.91;;;21.28;100.00
20115;BME280;10218;42.874;25.320;2023-07-20T03:51:28;96661.56;;;21.47;100.00
20115;BME280;10218;42.874;25.320;2023-07-20T03:53:56;96673.53;;;21.29;100.00
20115;BME280;10218;42.874;25.320;2023-07-20T03:56:24;96663.97;;;21.43;100.00
20115;BME280;10218;42.874;25.320;2023-07-20T03:58:51;96661.56;;;21.08;100.00
20115;BME280;10218;42.874;25.320;2023-07-20T04:01:18;96654.50;;;21.07;100.00
20115;BME280;10218;42.874;25.320;2023-07-20T04:03:45;96659.59;;;21.04;100.00
20115;BME280;10218;42.874;25.320;2023-07-20T04:06:15;96663.66;;;21.18;100.00
20115;BME280;10218;42.874;25.320;2023-07-20T04:08:44;96674.88;;;21.10;100.00
20115;BME280;10218;42.874;25.320;2023-07-20T04:11:14;96685.44;;;21.23;100.00
20115;BME280;10218;42.874;25.320;2023-07-20T04:13:41;96685.50;;;21.28;100.00
20115;BME280;10218;42.874;25.320;2023-07-20T04:16:08;96689.50;;;21.42;100.00
20115;BME280;10218;42.874;25.320;2023-07-20T04:18:35;96697.31;;;21.60;100.00
20115;BME280;10218;42.874;25.320;2023-07-20T04:21:02;96694.50;;;21.94;100.00
20115;BME280;10218;42.874;25.320;2023-07-20T04:23:29;96701.94;;;21.60;100.00
20115;BME280;10218;42.874;25.320;2023-07-20T04:25:57;96691.00;;;21.76;100.00
20115;BME280;10218;42.874;25.320;2023-07-20T04:28:24;96702.00;;;21.87;100.00
20115;BME280;10218;42.874;25.320;2023-07-20T04:30:52;96714.16;;;22.01;100.00
20115;BME280;10218;42.874;25.320;2023-07-20T04:33:21;96708.56;;;21.91;100.00
20115;BME280;10218;42.874;25.320;2023-07-20T04:35:53;96700.66;;;22.11;100.00
20115;BME280;10218;42.874;25.320;2023-07-20T04:38:22;96707.34;;;22.25;100.00
20115;BME280;10218;42.874;25.320;2023-07-20T04:40:49;96692.91;;;21.98;100.00
20115;BME280;10218;42.874;25.320;2023-07-20T04:43:17;96684.00;;;22.02;100.00
20115;BME280;10218;42.874;25.320;2023-07-20T04:45:46;96694.81;;;22.24;100.00
20115;BME280;10218;42.874;25.320;2023-07-20T04:48:15;96682.53;;;22.48;100.00
20115;BME280;10218;42.874;25.320;2023-07-20T04:50:45;96697.59;;;22.29;100.00
20115;BME280;10218;42.874;25.320;2023-07-20T04:53:13;96697.41;;;22.41;100.00
20115;BME280;10218;42.874;25.320;2023-07-20T04:55:46;96705.75;;;22.29;100.00
20115;BME280;10218;42.874;25.320;2023-07-20T04:58:19;96704.22;;;22.38;100.00
20115;BME280;10218;42.874;25.320;2023-07-20T05:00:48;96712.91;;;22.40;100.00
20115;BME280;10218;42.874;25.320;2023-07-20T05:03:15;96697.25;;;22.52;100.00
20115;BME280;10218;42.874;25.320;2023-07-20T05:05:43;96703.69;;;22.41;100.00
20115;BME280;10218;42.874;25.320;2023-07-20T05:08:11;96696.09;;;22.16;100.00
20115;BME280;10218;42.874;25.320;2023-07-20T05:10:38;96695.16;;;22.59;100.00
20115;BME280;10218;42.874;25.320;2023-07-20T05:13:07;96686.03;;;22.76;100.00
20115;BME280;10218;42.874;25.320;2023-07-20T05:15:34;96682.12;;;22.98;100.00
20115;BME280;10218;42.874;25.320;2023-07-20T05:18:02;96674.06;;;22.77;100.00
20115;BME280;10218;42.874;25.320;2023-07-20T05:20:30;96680.63;;;23.23;100.00
20115;BME280;10218;42.874;25.320;2023-07-20T05:22:59;96682.78;;;23.63;100.00
20115;BME280;10218;42.874;25.320;2023-07-20T05:25:27;96680.34;;;23.66;100.00
20115;BME280;10218;42.874;25.320;2023-07-20T05:27:55;96675.72;;;23.62;100.00
20115;BME280;10218;42.874;25.320;2023-07-20T05:30:22;96645.53;;;24.09;100.00
20115;BME280;10218;42.874;25.320;2023-07-20T05:32:49;96653.72;;;24.09;100.00
20115;BME280;10218;42.874;25.320;2023-07-20T05:35:20;96656.25;;;24.31;100.00
20115;BME280;10218;42.874;25.320;2023-07-20T05:37:47;96651.56;;;24.16;100.00
20115;BME280;10218;42.874;25.320;2023-07-20T05:40:14;96648.66;;;24.48;100.00
20115;BME280;10218;42.874;25.320;2023-07-20T05:42:46;96645.91;;;24.38;100.00
20115;BME280;10218;42.874;25.320;2023-07-20T05:45:14;96646.72;;;24.74;100.00
20115;BME280;10218;42.874;25.320;2023-07-20T05:47:41;96639.34;;;24.94;100.00
20115;BME280;10218;42.874;25.320;2023-07-20T05:50:09;96638.22;;;25.10;100.00
20115;BME280;10218;42.874;25.320;2023-07-20T05:52:37;96633.50;;;25.31;100.00
20115;BME280;10218;42.874;25.320;2023-07-20T05:55:06;96621.28;;;25.13;100.00
20115;BME280;10218;42.874;25.320;2023-07-20T05:57:34;96621.53;;;25.17;100.00
20115;BME280;10218;42.874;25.320;2023-07-20T06:00:02;96619.47;;;25.63;100.00
20115;BME280;10218;42.874;25.320;2023-07-20T06:02:37;96619.00;;;25.36;100.00
20115;BME280;10218;42.874;25.320;2023-07-20T06:05:06;96613.12;;;25.73;100.00
20115;BME280;10218;42.874;25.320;2023-07-20T06:07:37;96610.25;;;25.39;100.00
20115;BME280;10218;42.874;25.320;2023-07-20T06:10:05;96615.00;;;25.82;100.00
20115;BME280;10218;42.874;25.320;2023-07-20T06:12:32;96624.87;;;25.78;100.00
20115;BME280;10218;42.874;25.320;2023-07-20T06:15:04;96623.69;;;25.94;100.00
20115;BME280;10218;42.874;25.320;2023-07-20T06:17:31;96626.97;;;26.41;100.00
20115;BME280;10218;42.874;25.320;2023-07-20T06:19:59;96630.41;;;26.56;100.00
20115;BME280;10218;42.874;25.320;2023-07-20T06:22:26;96633.44;;;26.83;100.00
20115;BME280;10218;42.874;25.320;2023-07-20T06:24:53;96621.75;;;27.07;100.00
20115;BME280;10218;42.874;25.320;2023-07-20T06:27:20;96621.84;;;27.20;100.00
20115;BME280;10218;42.874;25.320;2023-07-20T06:29:47;96630.75;;;26.78;100.00
20115;BME280;10218;42.874;25.320;2023-07-20T06:32:14;96626.16;;;26.69;100.00
20115;BME280;10218;42.874;25.320;2023-07-20T06:34:41;96627.97;;;26.50;100.00
20115;BME280;10218;42.874;25.320;2023-07-20T06:37:09;96622.09;;;26.66;100.00
20115;BME280;10218;42.874;25.320;2023-07-20T06:39:36;96628.00;;;26.78;100.00
20115;BME280;10218;42.874;25.320;2023-07-20T06:42:06;96616.16;;;27.17;100.00
20115;BME280;10218;42.874;25.320;2023-07-20T06:44:34;96622.06;;;26.71;100.00
20115;BME280;10218;42.874;25.320;2023-07-20T06:47:00;96618.34;;;26.91;100.00
20115;BME280;10218;42.874;25.320;2023-07-20T06:49:28;96624.50;;;27.54;100.00
20115;BME280;10218;42.874;25.320;2023-07-20T06:51:56;96638.38;;;27.87;100.00
20115;BME280;10218;42.874;25.320;2023-07-20T06:54:23;96626.53;;;27.68;100.00
20115;BME280;10218;42.874;25.320;2023-07-20T06:56:51;96638.09;;;27.64;100.00
20115;BME280;10218;42.874;25.320;2023-07-20T06:59:21;96640.78;;;28.31;100.00
20115;BME280;10218;42.874;25.320;2023-07-20T07:01:48;96641.00;;;28.34;100.00
20115;BME280;10218;42.874;25.320;2023-07-20T07:04:15;96649.31;;;28.29;100.00
20115;BME280;10218;42.874;25.320;2023-07-20T07:06:43;96648.94;;;28.73;100.00
20115;BME280;10218;42.874;25.320;2023-07-20T07:09:11;96647.97;;;28.08;100.00
20115;BME280;10218;42.874;25.320;2023-07-20T07:11:38;96647.16;;;28.64;100.00
20115;BME280;10218;42.874;25.320;2023-07-20T07:14:05;96646.22;;;28.17;100.00
20115;BME280;10218;42.874;25.320;2023-07-20T07:16:33;96652.38;;;29.11;100.00
20115;BME280;10218;42.874;25.320;2023-07-20T07:19:05;96645.63;;;28.39;100.00
20115;BME280;10218;42.874;25.320;2023-07-20T07:21:32;96656.47;;;27.88;100.00
20115;BME280;10218;42.874;25.320;2023-07-20T07:23:59;96663.50;;;28.36;100.00
20115;BME280;10218;42.874;25.320;2023-07-20T07:26:27;96661.69;;;28.83;100.00
20115;BME280;10218;42.874;25.320;2023-07-20T07:28:54;96662.81;;;29.28;100.00
20115;BME280;10218;42.874;25.320;2023-07-20T07:31:21;96670.63;;;28.37;100.00
20115;BME280;10218;42.874;25.320;2023-07-20T07:33:48;96665.50;;;28.12;100.00
20115;BME280;10218;42.874;25.320;2023-07-20T07:36:15;96672.00;;;28.91;100.00
20115;BME280;10218;42.874;25.320;2023-07-20T07:38:42;96664.84;;;27.78;100.00
20115;BME280;10218;42.874;25.320;2023-07-20T07:41:14;96681.12;;;29.19;100.00
20115;BME280;10218;42.874;25.320;2023-07-20T07:43:41;96684.66;;;29.38;100.00
20115;BME280;10218;42.874;25.320;2023-07-20T07:46:08;96685.56;;;28.13;100.00
20115;BME280;10218;42.874;25.320;2023-07-20T07:48:35;96686.97;;;27.86;100.00
20115;BME280;10218;42.874;25.320;2023-07-20T07:51:02;96695.28;;;28.00;100.00
20115;BME280;10218;42.874;25.320;2023-07-20T07:53:29;96695.50;;;28.27;100.00
20115;BME280;10218;42.874;25.320;2023-07-20T07:55:56;96691.44;;;28.43;100.00
20115;BME280;10218;42.874;25.320;2023-07-20T07:58:23;96702.84;;;28.50;100.00
20115;BME280;10218;42.874;25.320;2023-07-20T08:00:50;96706.06;;;29.09;100.00
20115;BME280;10218;42.874;25.320;2023-07-20T08:03:18;96707.91;;;30.28;100.00
20115;BME280;10218;42.874;25.320;2023-07-20T08:05:45;96697.12;;;29.63;96.09
20115;BME280;10218;42.874;25.320;2023-07-20T08:08:12;96708.25;;;30.12;98.68
20115;BME280;10218;42.874;25.320;2023-07-20T08:10:40;96700.78;;;29.12;100.00
20115;BME280;10218;42.874;25.320;2023-07-20T08:13:06;96708.44;;;29.48;100.00
20115;BME280;10218;42.874;25.320;2023-07-20T08:15:33;96713.38;;;29.92;100.00
20115;BME280;10218;42.874;25.320;2023-07-20T08:18:01;96712.72;;;30.36;97.19
20115;BME280;10218;42.874;25.320;2023-07-20T08:20:28;96704.31;;;29.31;100.00
20115;BME280;10218;42.874;25.320;2023-07-20T08:22:55;96713.03;;;30.70;100.00
20115;BME280;10218;42.874;25.320;2023-07-20T08:25:22;96723.59;;;31.35;95.64
20115;BME280;10218;42.874;25.320;2023-07-20T08:27:49;96719.97;;;31.26;86.85
20115;BME280;10218;42.874;25.320;2023-07-20T08:30:16;96719.91;;;30.09;93.50
20115;BME280;10218;42.874;25.320;2023-07-20T08:32:44;96731.87;;;30.41;87.53
20115;BME280;10218;42.874;25.320;2023-07-20T08:35:11;96729.03;;;30.46;87.71
20115;BME280;10218;42.874;25.320;2023-07-20T08:37:41;96731.63;;;31.00;86.86
20115;BME280;10218;42.874;25.320;2023-07-20T08:40:09;96727.84;;;30.11;88.45
20115;BME280;10218;42.874;25.320;2023-07-20T08:42:38;96722.66;;;30.09;90.34
20115;BME280;10218;42.874;25.320;2023-07-20T08:45:06;96732.22;;;30.75;90.32
20115;BME280;10218;42.874;25.320;2023-07-20T08:47:35;96724.97;;;31.01;91.49
20115;BME280;10218;42.874;25.320;2023-07-20T08:50:05;96728.25;;;31.26;93.21
20115;BME280;10218;42.874;25.320;2023-07-20T08:52:34;96721.06;;;31.47;91.75
20115;BME280;10218;42.874;25.320;2023-07-20T08:55:01;96722.94;;;32.56;78.19
20115;BME280;10218;42.874;25.320;2023-07-20T08:57:32;96727.03;;;30.10;96.97
20115;BME280;10218;42.874;25.320;2023-07-20T09:00:02;96715.41;;;31.52;89.37
20115;BME280;10218;42.874;25.320;2023-07-20T09:02:35;96742.91;;;30.54;93.35
20115;BME280;10218;42.874;25.320;2023-07-20T09:05:02;96753.22;;;31.43;92.92
20115;BME280;10218;42.874;25.320;2023-07-20T09:07:31;96754.66;;;32.02;85.35
20115;BME280;10218;42.874;25.320;2023-07-20T09:09:58;96761.00;;;32.03;80.82
20115;BME280;10218;42.874;25.320;2023-07-20T09:12:26;96754.47;;;30.79;94.12
20115;BME280;10218;42.874;25.320;2023-07-20T09:14:57;96755.53;;;30.69;90.25
20115;BME280;10218;42.874;25.320;2023-07-20T09:17:25;96755.91;;;30.27;97.64
20115;BME280;10218;42.874;25.320;2023-07-20T09:23:37;96743.03;;;31.74;93.82
20115;BME280;10218;42.874;25.320;2023-07-20T09:26:13;96739.47;;;31.82;94.26
20115;BME280;10218;42.874;25.320;2023-07-20T09:28:43;96741.56;;;31.55;77.42
20115;BME280;10218;42.874;25.320;2023-07-20T09:31:17;96739.25;;;31.17;80.09
20115;BME280;10218;42.874;25.320;2023-07-20T09:33:47;96751.09;;;31.18;79.22
20115;BME280;10218;42.874;25.320;2023-07-20T09:36:17;96743.06;;;31.92;73.73
20115;BME280;10218;42.874;25.320;2023-07-20T09:38:49;96742.41;;;32.25;71.60
20115;BME280;10218;42.874;25.320;2023-07-20T09:41:21;96735.88;;;31.73;71.21
20115;BME280;10218;42.874;25.320;2023-07-20T09:43:51;96722.13;;;32.47;71.11
20115;BME280;10218;42.874;25.320;2023-07-20T09:46:18;96715.97;;;31.10;79.35
20115;BME280;10218;42.874;25.320;2023-07-20T09:48:53;96718.16;;;31.74;76.95
20115;BME280;10218;42.874;25.320;2023-07-20T09:51:23;96696.47;;;31.28;88.34
20115;BME280;10218;42.874;25.320;2023-07-20T09:53:54;96709.78;;;31.57;73.58
20115;BME280;10218;42.874;25.320;2023-07-20T09:56:21;96712.62;;;30.27;81.43
20115;BME280;10218;42.874;25.320;2023-07-20T09:58:50;96716.41;;;31.56;74.55
20115;BME280;10218;42.874;25.320;2023-07-20T10:01:20;96708.59;;;31.80;68.44
20115;BME280;10218;42.874;25.320;2023-07-20T10:03:53;96704.62;;;32.86;65.81
20115;BME280;10218;42.874;25.320;2023-07-20T10:06:23;96712.47;;;31.18;73.36
20115;BME280;10218;42.874;25.320;2023-07-20T10:08:53;96698.59;;;32.02;70.59
20115;BME280;10218;42.874;25.320;2023-07-20T10:11:27;96697.75;;;32.41;65.59
20115;BME280;10218;42.874;25.320;2023-07-20T10:13:59;96695.91;;;32.36;70.91
20115;BME280;10218;42.874;25.320;2023-07-20T10:16:34;96687.94;;;33.46;65.51
20115;BME280;10218;42.874;25.320;2023-07-20T10:22:25;96689.09;;;34.21;56.80
20115;BME280;10218;42.874;25.320;2023-07-20T10:24:54;96690.78;;;34.34;58.31
20115;BME280;10218;42.874;25.320;2023-07-20T10:27:21;96685.87;;;31.83;66.46
20115;BME280;10218;42.874;25.320;2023-07-20T10:29:48;96687.88;;;32.09;69.20
20115;BME280;10218;42.874;25.320;2023-07-20T10:32:19;96687.47;;;33.36;60.73
20115;BME280;10218;42.874;25.320;2023-07-20T10:34:53;96671.06;;;32.53;67.12
20115;BME280;10218;42.874;25.320;2023-07-20T10:40:53;96687.63;;;34.15;60.65
20115;BME280;10218;42.874;25.320;2023-07-20T10:43:21;96683.13;;;34.82;54.54
20115;BME280;10218;42.874;25.320;2023-07-20T10:45:52;96681.12;;;33.18;64.45
20115;BME280;10218;42.874;25.320;2023-07-20T10:48:24;96672.56;;;32.85;60.33
20115;BME280;10218;42.874;25.320;2023-07-20T10:51:14;96669.25;;;32.92;60.87
20115;BME280;10218;42.874;25.320;2023-07-20T10:53:48;96686.69;;;33.82;56.36
20115;BME280;10218;42.874;25.320;2023-07-20T10:56:21;96690.84;;;34.76;54.33
20115;BME280;10218;42.874;25.320;2023-07-20T10:58:49;96682.66;;;33.62;55.05
20115;BME280;10218;42.874;25.320;2023-07-20T11:01:17;96688.88;;;34.97;52.68
20115;BME280;10218;42.874;25.320;2023-07-20T11:03:49;96679.75;;;34.76;52.06
20115;BME280;10218;42.874;25.320;2023-07-20T11:09:12;96674.78;;;34.61;48.44
20115;BME280;10218;42.874;25.320;2023-07-20T11:11:47;96674.56;;;35.07;45.31
20115;BME280;10218;42.874;25.320;2023-07-20T11:16:50;96662.91;;;33.26;49.64
20115;BME280;10218;42.874;25.320;2023-07-20T11:21:55;96649.03;;;33.34;48.75
20115;BME280;10218;42.874;25.320;2023-07-20T11:24:27;96651.50;;;34.32;47.19
20115;BME280;10218;42.874;25.320;2023-07-20T11:26:55;96654.81;;;35.54;45.50
20115;BME280;10218;42.874;25.320;2023-07-20T11:29:23;96651.59;;;35.76;44.44
20115;BME280;10218;42.874;25.320;2023-07-20T11:31:57;96654.69;;;34.22;45.49
20115;BME280;10218;42.874;25.320;2023-07-20T11:34:25;96646.38;;;33.93;46.99
20115;BME280;10218;42.874;25.320;2023-07-20T11:36:54;96641.59;;;34.73;46.38
20115;BME280;10218;42.874;25.320;2023-07-20T11:39:25;96639.28;;;33.20;47.98
20115;BME280;10218;42.874;25.320;2023-07-20T11:41:54;96631.03;;;34.16;45.93
20115;BME280;10218;42.874;25.320;2023-07-20T11:44:24;96637.50;;;34.50;46.49
20115;BME280;10218;42.874;25.320;2023-07-20T11:49:43;96633.31;;;35.87;43.57
20115;BME280;10218;42.874;25.320;2023-07-20T11:52:14;96627.59;;;33.61;52.04
20115;BME280;10218;42.874;25.320;2023-07-20T11:54:43;96619.66;;;32.52;56.28
20115;BME280;10218;42.874;25.320;2023-07-20T11:57:17;96619.66;;;32.18;55.38
20115;BME280;10218;42.874;25.320;2023-07-20T11:59:58;96604.28;;;31.77;58.32
20115;BME280;10218;42.874;25.320;2023-07-20T12:02:27;96590.53;;;32.55;64.47
20115;BME280;10218;42.874;25.320;2023-07-20T12:04:56;96595.75;;;34.67;54.50
20115;BME280;10218;42.874;25.320;2023-07-20T12:07:27;96593.19;;;34.62;53.31
20115;BME280;10218;42.874;25.320;2023-07-20T12:10:10;96589.78;;;34.23;55.25
20115;BME280;10218;42.874;25.320;2023-07-20T12:12:39;96573.88;;;34.65;50.49
20115;BME280;10218;42.874;25.320;2023-07-20T12:17:50;96542.44;;;32.30;62.68
20115;BME280;10218;42.874;25.320;2023-07-20T12:20:36;96537.53;;;32.10;67.83
20115;BME280;10218;42.874;25.320;2023-07-20T12:23:08;96539.34;;;33.50;55.32
20115;BME280;10218;42.874;25.320;2023-07-20T12:25:40;96544.19;;;32.60;59.48
20115;BME280;10218;42.874;25.320;2023-07-20T12:28:15;96551.66;;;32.25;62.19
20115;BME280;10218;42.874;25.320;2023-07-20T12:30:44;96557.97;;;33.71;56.20
20115;BME280;10218;42.874;25.320;2023-07-20T12:33:12;96557.06;;;32.39;61.73
20115;BME280;10218;42.874;25.320;2023-07-20T12:35:42;96540.37;;;32.91;64.08
20115;BME280;10218;42.874;25.320;2023-07-20T12:38:12;96536.12;;;32.93;61.21
20115;BME280;10218;42.874;25.320;2023-07-20T12:40:40;96520.25;;;31.61;72.55
20115;BME280;10218;42.874;25.320;2023-07-20T12:43:07;96525.00;;;31.87;73.44
20115;BME280;10218;42.874;25.320;2023-07-20T12:45:35;96535.22;;;32.72;65.24
20115;BME280;10218;42.874;25.320;2023-07-20T12:48:02;96523.66;;;32.79;66.41
20115;BME280;10218;42.874;25.320;2023-07-20T12:50:29;96529.38;;;33.20;66.53
20115;BME280;10218;42.874;25.320;2023-07-20T12:52:57;96524.53;;;34.17;57.32
20115;BME280;10218;42.874;25.320;2023-07-20T12:55:24;96524.81;;;34.78;55.63
20115;BME280;10218;42.874;25.320;2023-07-20T12:57:51;96527.72;;;34.82;54.27
20115;BME280;10218;42.874;25.320;2023-07-20T13:00:18;96519.09;;;34.62;53.05
20115;BME280;10218;42.874;25.320;2023-07-20T13:02:45;96527.72;;;34.07;56.10
20115;BME280;10218;42.874;25.320;2023-07-20T13:05:12;96520.72;;;35.08;52.08
20115;BME280;10218;42.874;25.320;2023-07-20T13:07:40;96511.72;;;34.33;58.34
20115;BME280;10218;42.874;25.320;2023-07-20T13:10:11;96496.41;;;34.93;54.11
20115;BME280;10218;42.874;25.320;2023-07-20T13:12:38;96510.03;;;34.86;53.37
20115;BME280;10218;42.874;25.320;2023-07-20T13:15:07;96501.59;;;34.83;54.05
20115;BME280;10218;42.874;25.320;2023-07-20T13:17:36;96503.47;;;35.88;51.19
20115;BME280;10218;42.874;25.320;2023-07-20T13:20:04;96485.34;;;34.27;56.68
20115;BME280;10218;42.874;25.320;2023-07-20T13:22:33;96491.28;;;34.17;60.67
20115;BME280;10218;42.874;25.320;2023-07-20T13:25:00;96485.69;;;35.40;62.63